sensor_id;sensor_type;location;lat;lon;timestamp;temperature;humidity
52889;DHT22;41413;52.770;6.892;2022-11-18T00:03:32;6.90;99.90
52889;DHT22;41413;52.770;6.892;2022-11-18T00:05:58;6.80;99.90
52889;DHT22;41413;52.770;6.892;2022-11-18T00:08:25;6.80;99.90
52889;DHT22;41413;52.770;6.892;2022-11-18T00:10:52;6.80;99.90
52889;DHT22;41413;52.770;6.892;2022-11-18T00:13:19;6.90;99.90
52889;DHT22;41413;52.770;6.892;2022-11-18T00:16:10;6.90;99.90
52889;DHT22;41413;52.770;6.892;2022-11-18T00:18:37;6.90;99.90
52889;DHT22;41413;52.770;6.892;2022-11-18T00:21:07;6.90;99.90
52889;DHT22;41413;52.770;6.892;2022-11-18T00:23:34;6.90;99.90
52889;DHT22;41413;52.770;6.892;2022-11-18T00:26:10;6.90;99.90
52889;DHT22;41413;52.770;6.892;2022-11-18T00:28:38;6.90;99.90
52889;DHT22;41413;52.770;6.892;2022-11-18T00:31:09;6.90;99.90
52889;DHT22;41413;52.770;6.892;2022-11-18T00:33:37;6.90;99.90
52889;DHT22;41413;52.770;6.892;2022-11-18T00:36:06;6.90;99.90
52889;DHT22;41413;52.770;6.892;2022-11-18T00:38:33;6.90;99.90
52889;DHT22;41413;52.770;6.892;2022-11-18T00:41:01;6.80;99.90
52889;DHT22;41413;52.770;6.892;2022-11-18T00:43:29;6.90;99.90
52889;DHT22;41413;52.770;6.892;2022-11-18T00:45:56;6.90;99.90
52889;DHT22;41413;52.770;6.892;2022-11-18T00:48:23;6.90;99.90
52889;DHT22;41413;52.770;6.892;2022-11-18T00:50:51;6.90;99.90
52889;DHT22;41413;52.770;6.892;2022-11-18T00:53:19;6.90;99.90
52889;DHT22;41413;52.770;6.892;2022-11-18T00:55:46;6.90;99.90
52889;DHT22;41413;52.770;6.892;2022-11-18T00:58:13;6.90;99.90
52889;DHT22;41413;52.770;6.892;2022-11-18T01:00:45;6.90;99.90
52889;DHT22;41413;52.770;6.892;2022-11-18T01:03:14;6.90;99.90
52889;DHT22;41413;52.770;6.892;2022-11-18T01:05:41;6.90;99.90
52889;DHT22;41413;52.770;6.892;2022-11-18T01:08:09;6.80;99.90
52889;DHT22;41413;52.770;6.892;2022-11-18T01:10:38;6.80;99.90
52889;DHT22;41413;52.770;6.892;2022-11-18T01:13:06;6.90;99.90
52889;DHT22;41413;52.770;6.892;2022-11-18T01:15:52;6.90;99.90
52889;DHT22;41413;52.770;6.892;2022-11-18T01:18:24;6.80;99.90
52889;DHT22;41413;52.770;6.892;2022-11-18T01:20:51;6.90;99.90
52889;DHT22;41413;52.770;6.892;2022-11-18T01:23:19;6.90;99.90
52889;DHT22;41413;52.770;6.892;2022-11-18T01:25:47;6.90;99.90
52889;DHT22;41413;52.770;6.892;2022-11-18T01:28:16;6.90;99.90
52889;DHT22;41413;52.770;6.892;2022-11-18T01:30:49;6.90;99.90
52889;DHT22;41413;52.770;6.892;2022-11-18T01:33:16;6.90;99.90
52889;DHT22;41413;52.770;6.892;2022-11-18T01:35:43;6.90;99.90
52889;DHT22;41413;52.770;6.892;2022-11-18T01:38:12;6.80;99.90
52889;DHT22;41413;52.770;6.892;2022-11-18T01:40:40;6.90;99.90
52889;DHT22;41413;52.770;6.892;2022-11-18T01:43:15;6.90;99.90
52889;DHT22;41413;52.770;6.892;2022-11-18T01:45:44;6.90;99.90
52889;DHT22;41413;52.770;6.892;2022-11-18T01:50:42;6.80;99.90
52889;DHT22;41413;52.770;6.892;2022-11-18T01:53:36;6.90;99.90
52889;DHT22;41413;52.770;6.892;2022-11-18T01:56:07;6.80;99.90
52889;DHT22;41413;52.770;6.892;2022-11-18T01:58:35;6.90;99.90
52889;DHT22;41413;52.770;6.892;2022-11-18T02:01:04;6.90;99.90
52889;DHT22;41413;52.770;6.892;2022-11-18T02:03:33;6.80;99.90
52889;DHT22;41413;52.770;6.892;2022-11-18T02:06:01;6.80;99.90
52889;DHT22;41413;52.770;6.892;2022-11-18T02:08:28;6.90;99.90
52889;DHT22;41413;52.770;6.892;2022-11-18T02:10:56;6.90;99.90
52889;DHT22;41413;52.770;6.892;2022-11-18T02:13:23;6.90;99.90
52889;DHT22;41413;52.770;6.892;2022-11-18T02:16:05;6.90;99.90
52889;DHT22;41413;52.770;6.892;2022-11-18T02:21:42;6.80;99.90
52889;DHT22;41413;52.770;6.892;2022-11-18T02:24:27;6.90;99.90
52889;DHT22;41413;52.770;6.892;2022-11-18T02:30:05;6.80;99.90
52889;DHT22;41413;52.770;6.892;2022-11-18T02:35:28;6.90;99.90
52889;DHT22;41413;52.770;6.892;2022-11-18T02:38:10;6.80;99.90
52889;DHT22;41413;52.770;6.892;2022-11-18T02:40:47;6.80;99.90
52889;DHT22;41413;52.770;6.892;2022-11-18T02:43:25;6.80;99.90
52889;DHT22;41413;52.770;6.892;2022-11-18T02:45:59;6.80;99.90
52889;DHT22;41413;52.770;6.892;2022-11-18T02:48:28;6.90;99.90
52889;DHT22;41413;52.770;6.892;2022-11-18T02:50:57;6.80;99.90
52889;DHT22;41413;52.770;6.892;2022-11-18T02:53:27;6.80;99.90
52889;DHT22;41413;52.770;6.892;2022-11-18T02:55:55;6.80;99.90
52889;DHT22;41413;52.770;6.892;2022-11-18T02:58:24;6.80;99.90
52889;DHT22;41413;52.770;6.892;2022-11-18T03:00:55;6.80;99.90
52889;DHT22;41413;52.770;6.892;2022-11-18T03:03:34;6.80;99.90
52889;DHT22;41413;52.770;6.892;2022-11-18T03:06:07;6.80;99.90
52889;DHT22;41413;52.770;6.892;2022-11-18T03:17:03;6.80;99.90
52889;DHT22;41413;52.770;6.892;2022-11-18T03:22:43;6.60;99.90
52889;DHT22;41413;52.770;6.892;2022-11-18T03:25:33;6.80;99.90
52889;DHT22;41413;52.770;6.892;2022-11-18T03:28:16;6.80;99.90
52889;DHT22;41413;52.770;6.892;2022-11-18T03:31:15;6.80;99.90
52889;DHT22;41413;52.770;6.892;2022-11-18T03:34:06;6.80;99.90
52889;DHT22;41413;52.770;6.892;2022-11-18T03:36:39;6.80;99.90
52889;DHT22;41413;52.770;6.892;2022-11-18T03:39:08;6.80;99.90
52889;DHT22;41413;52.770;6.892;2022-11-18T03:41:41;6.80;99.90
52889;DHT22;41413;52.770;6.892;2022-11-18T03:44:17;6.70;99.90
52889;DHT22;41413;52.770;6.892;2022-11-18T03:46:49;6.80;99.90
52889;DHT22;41413;52.770;6.892;2022-11-18T03:49:24;6.80;99.90
52889;DHT22;41413;52.770;6.892;2022-11-18T03:52:00;6.80;99.90
52889;DHT22;41413;52.770;6.892;2022-11-18T03:54:30;6.80;99.90
52889;DHT22;41413;52.770;6.892;2022-11-18T03:57:01;6.70;99.90
52889;DHT22;41413;52.770;6.892;2022-11-18T03:59:36;6.70;99.90
52889;DHT22;41413;52.770;6.892;2022-11-18T04:02:14;6.70;99.90
52889;DHT22;41413;52.770;6.892;2022-11-18T04:04:48;6.70;99.90
52889;DHT22;41413;52.770;6.892;2022-11-18T04:07:36;6.70;99.90
52889;DHT22;41413;52.770;6.892;2022-11-18T04:10:16;6.70;99.90
52889;DHT22;41413;52.770;6.892;2022-11-18T04:15:35;6.70;99.90
52889;DHT22;41413;52.770;6.892;2022-11-18T04:18:04;6.70;99.90
52889;DHT22;41413;52.770;6.892;2022-11-18T04:20:30;6.80;99.90
52889;DHT22;41413;52.770;6.892;2022-11-18T04:22:59;6.80;99.90
52889;DHT22;41413;52.770;6.892;2022-11-18T04:25:26;6.70;99.90
52889;DHT22;41413;52.770;6.892;2022-11-18T04:27:53;6.70;99.90
52889;DHT22;41413;52.770;6.892;2022-11-18T04:30:20;6.70;99.90
52889;DHT22;41413;52.770;6.892;2022-11-18T04:32:46;6.70;99.90
52889;DHT22;41413;52.770;6.892;2022-11-18T04:35:13;6.70;99.90
52889;DHT22;41413;52.770;6.892;2022-11-18T04:37:40;6.70;99.90
52889;DHT22;41413;52.770;6.892;2022-11-18T04:40:08;6.70;99.90
52889;DHT22;41413;52.770;6.892;2022-11-18T04:42:35;6.60;99.90
52889;DHT22;41413;52.770;6.892;2022-11-18T04:45:02;6.70;99.90
52889;DHT22;41413;52.770;6.892;2022-11-18T04:47:29;6.60;99.90
52889;DHT22;41413;52.770;6.892;2022-11-18T04:49:56;6.60;99.90
52889;DHT22;41413;52.770;6.892;2022-11-18T04:52:22;6.60;99.90
52889;DHT22;41413;52.770;6.892;2022-11-18T04:54:49;6.60;99.90
52889;DHT22;41413;52.770;6.892;2022-11-18T04:57:16;6.60;99.90
52889;DHT22;41413;52.770;6.892;2022-11-18T04:59:42;6.60;99.90
52889;DHT22;41413;52.770;6.892;2022-11-18T05:02:09;6.60;99.90
52889;DHT22;41413;52.770;6.892;2022-11-18T05:04:36;6.60;99.90
52889;DHT22;41413;52.770;6.892;2022-11-18T05:07:04;6.60;99.90
52889;DHT22;41413;52.770;6.892;2022-11-18T05:09:31;6.60;99.90
52889;DHT22;41413;52.770;6.892;2022-11-18T05:11:59;6.60;99.90
52889;DHT22;41413;52.770;6.892;2022-11-18T05:14:44;6.60;99.90
52889;DHT22;41413;52.770;6.892;2022-11-18T05:17:16;6.60;99.90
52889;DHT22;41413;52.770;6.892;2022-11-18T05:19:43;6.60;99.90
52889;DHT22;41413;52.770;6.892;2022-11-18T05:22:10;6.60;99.90
52889;DHT22;41413;52.770;6.892;2022-11-18T05:24:36;6.60;99.90
52889;DHT22;41413;52.770;6.892;2022-11-18T05:27:03;6.60;99.90
52889;DHT22;41413;52.770;6.892;2022-11-18T05:29:30;6.60;99.90
52889;DHT22;41413;52.770;6.892;2022-11-18T05:31:57;6.60;99.90
52889;DHT22;41413;52.770;6.892;2022-11-18T05:34:23;6.60;99.90
52889;DHT22;41413;52.770;6.892;2022-11-18T05:36:50;6.60;99.90
52889;DHT22;41413;52.770;6.892;2022-11-18T05:39:17;6.60;99.90
52889;DHT22;41413;52.770;6.892;2022-11-18T05:41:44;6.60;99.90
52889;DHT22;41413;52.770;6.892;2022-11-18T05:44:30;6.60;99.90
52889;DHT22;41413;52.770;6.892;2022-11-18T05:46:56;6.50;99.90
52889;DHT22;41413;52.770;6.892;2022-11-18T05:49:23;6.50;99.90
52889;DHT22;41413;52.770;6.892;2022-11-18T05:51:50;6.50;99.90
52889;DHT22;41413;52.770;6.892;2022-11-18T05:54:18;6.50;99.90
52889;DHT22;41413;52.770;6.892;2022-11-18T05:56:45;6.50;99.90
52889;DHT22;41413;52.770;6.892;2022-11-18T05:59:12;6.50;99.90
52889;DHT22;41413;52.770;6.892;2022-11-18T06:04:27;6.50;99.90
52889;DHT22;41413;52.770;6.892;2022-11-18T06:07:02;6.50;99.90
52889;DHT22;41413;52.770;6.892;2022-11-18T06:09:33;6.50;99.90
52889;DHT22;41413;52.770;6.892;2022-11-18T06:12:02;6.50;99.90
52889;DHT22;41413;52.770;6.892;2022-11-18T06:14:59;6.50;99.90
52889;DHT22;41413;52.770;6.892;2022-11-18T06:17:35;6.50;99.90
52889;DHT22;41413;52.770;6.892;2022-11-18T06:20:05;6.50;99.90
52889;DHT22;41413;52.770;6.892;2022-11-18T06:22:33;6.50;99.90
52889;DHT22;41413;52.770;6.892;2022-11-18T06:25:01;6.50;99.90
52889;DHT22;41413;52.770;6.892;2022-11-18T06:27:29;6.50;99.90
52889;DHT22;41413;52.770;6.892;2022-11-18T06:29:56;6.40;99.90
52889;DHT22;41413;52.770;6.892;2022-11-18T06:32:23;6.50;99.90
52889;DHT22;41413;52.770;6.892;2022-11-18T06:34:49;6.50;99.90
52889;DHT22;41413;52.770;6.892;2022-11-18T06:37:18;6.50;99.90
52889;DHT22;41413;52.770;6.892;2022-11-18T06:39:47;6.50;99.90
52889;DHT22;41413;52.770;6.892;2022-11-18T06:42:14;6.50;99.90
52889;DHT22;41413;52.770;6.892;2022-11-18T06:45:02;6.40;99.90
52889;DHT22;41413;52.770;6.892;2022-11-18T06:47:29;6.40;99.90
52889;DHT22;41413;52.770;6.892;2022-11-18T06:49:55;6.40;99.90
52889;DHT22;41413;52.770;6.892;2022-11-18T06:52:22;6.40;99.90
52889;DHT22;41413;52.770;6.892;2022-11-18T06:54:49;6.80;99.90
52889;DHT22;41413;52.770;6.892;2022-11-18T06:57:15;6.40;99.90
52889;DHT22;41413;52.770;6.892;2022-11-18T06:59:42;6.40;99.90
52889;DHT22;41413;52.770;6.892;2022-11-18T07:02:09;6.40;99.90
52889;DHT22;41413;52.770;6.892;2022-11-18T07:04:36;6.40;99.90
52889;DHT22;41413;52.770;6.892;2022-11-18T07:07:06;6.30;99.90
52889;DHT22;41413;52.770;6.892;2022-11-18T07:09:34;6.40;99.90
52889;DHT22;41413;52.770;6.892;2022-11-18T07:12:00;6.30;99.90
52889;DHT22;41413;52.770;6.892;2022-11-18T07:14:27;6.30;99.90
52889;DHT22;41413;52.770;6.892;2022-11-18T07:16:54;6.30;99.90
52889;DHT22;41413;52.770;6.892;2022-11-18T07:19:21;6.40;99.90
52889;DHT22;41413;52.770;6.892;2022-11-18T07:21:47;6.30;99.90
52889;DHT22;41413;52.770;6.892;2022-11-18T07:24:15;6.30;99.90
52889;DHT22;41413;52.770;6.892;2022-11-18T07:26:42;6.30;99.90
52889;DHT22;41413;52.770;6.892;2022-11-18T07:29:09;6.30;99.90
52889;DHT22;41413;52.770;6.892;2022-11-18T07:31:36;6.30;99.90
52889;DHT22;41413;52.770;6.892;2022-11-18T07:34:04;6.30;99.90
52889;DHT22;41413;52.770;6.892;2022-11-18T07:36:31;6.30;99.90
52889;DHT22;41413;52.770;6.892;2022-11-18T07:39:03;6.30;99.90
52889;DHT22;41413;52.770;6.892;2022-11-18T07:41:31;6.30;99.90
52889;DHT22;41413;52.770;6.892;2022-11-18T07:44:00;6.30;99.90
52889;DHT22;41413;52.770;6.892;2022-11-18T07:46:33;6.30;99.90
52889;DHT22;41413;52.770;6.892;2022-11-18T07:49:02;6.30;99.90
52889;DHT22;41413;52.770;6.892;2022-11-18T07:51:32;6.30;99.90
52889;DHT22;41413;52.770;6.892;2022-11-18T07:54:00;6.30;99.90
52889;DHT22;41413;52.770;6.892;2022-11-18T07:56:30;6.30;99.90
52889;DHT22;41413;52.770;6.892;2022-11-18T07:58:57;6.30;99.90
52889;DHT22;41413;52.770;6.892;2022-11-18T08:01:24;6.30;99.90
52889;DHT22;41413;52.770;6.892;2022-11-18T08:03:54;6.20;99.90
52889;DHT22;41413;52.770;6.892;2022-11-18T08:06:21;6.20;99.90
52889;DHT22;41413;52.770;6.892;2022-11-18T08:08:48;6.30;99.90
52889;DHT22;41413;52.770;6.892;2022-11-18T08:11:17;6.30;99.90
52889;DHT22;41413;52.770;6.892;2022-11-18T08:13:49;6.30;99.90
52889;DHT22;41413;52.770;6.892;2022-11-18T08:16:21;6.20;99.90
52889;DHT22;41413;52.770;6.892;2022-11-18T08:18:49;6.20;99.90
52889;DHT22;41413;52.770;6.892;2022-11-18T08:21:18;5.90;99.90
52889;DHT22;41413;52.770;6.892;2022-11-18T08:23:50;6.30;99.90
52889;DHT22;41413;52.770;6.892;2022-11-18T08:26:17;6.20;99.90
52889;DHT22;41413;52.770;6.892;2022-11-18T08:28:44;6.20;99.90
52889;DHT22;41413;52.770;6.892;2022-11-18T08:31:25;6.20;99.90
52889;DHT22;41413;52.770;6.892;2022-11-18T08:36:25;6.20;99.90
52889;DHT22;41413;52.770;6.892;2022-11-18T08:38:51;6.10;99.90
52889;DHT22;41413;52.770;6.892;2022-11-18T08:41:24;6.10;99.90
52889;DHT22;41413;52.770;6.892;2022-11-18T08:43:53;6.30;99.90
52889;DHT22;41413;52.770;6.892;2022-11-18T08:46:20;6.10;99.90
52889;DHT22;41413;52.770;6.892;2022-11-18T08:48:46;6.20;99.90
52889;DHT22;41413;52.770;6.892;2022-11-18T08:51:14;6.20;99.90
52889;DHT22;41413;52.770;6.892;2022-11-18T08:53:41;6.20;99.90
52889;DHT22;41413;52.770;6.892;2022-11-18T08:56:16;6.20;99.90
52889;DHT22;41413;52.770;6.892;2022-11-18T08:58:43;6.20;99.90
52889;DHT22;41413;52.770;6.892;2022-11-18T09:01:11;6.30;99.90
52889;DHT22;41413;52.770;6.892;2022-11-18T09:03:38;6.30;99.90
52889;DHT22;41413;52.770;6.892;2022-11-18T09:06:21;6.30;99.90
52889;DHT22;41413;52.770;6.892;2022-11-18T09:08:50;6.30;99.90
52889;DHT22;41413;52.770;6.892;2022-11-18T09:11:19;6.30;99.90
52889;DHT22;41413;52.770;6.892;2022-11-18T09:13:46;6.30;99.90
52889;DHT22;41413;52.770;6.892;2022-11-18T09:16:34;6.30;99.90
52889;DHT22;41413;52.770;6.892;2022-11-18T09:19:01;6.30;99.90
52889;DHT22;41413;52.770;6.892;2022-11-18T09:21:48;6.30;99.90
52889;DHT22;41413;52.770;6.892;2022-11-18T09:24:15;6.30;99.90
52889;DHT22;41413;52.770;6.892;2022-11-18T09:26:43;6.30;99.90
52889;DHT22;41413;52.770;6.892;2022-11-18T09:29:09;6.30;99.90
52889;DHT22;41413;52.770;6.892;2022-11-18T09:31:39;6.30;99.90
52889;DHT22;41413;52.770;6.892;2022-11-18T09:34:06;6.30;99.90
52889;DHT22;41413;52.770;6.892;2022-11-18T09:36:35;6.30;99.90
52889;DHT22;41413;52.770;6.892;2022-11-18T09:39:02;6.20;99.90
52889;DHT22;41413;52.770;6.892;2022-11-18T09:41:49;6.30;99.90
52889;DHT22;41413;52.770;6.892;2022-11-18T09:47:32;6.20;99.90
52889;DHT22;41413;52.770;6.892;2022-11-18T09:50:05;6.30;99.90
52889;DHT22;41413;52.770;6.892;2022-11-18T09:55:37;6.30;99.90
52889;DHT22;41413;52.770;6.892;2022-11-18T09:58:05;6.30;99.90
52889;DHT22;41413;52.770;6.892;2022-11-18T10:00:33;6.30;99.90
52889;DHT22;41413;52.770;6.892;2022-11-18T10:03:03;6.30;99.90
52889;DHT22;41413;52.770;6.892;2022-11-18T10:08:23;6.30;99.90
52889;DHT22;41413;52.770;6.892;2022-11-18T10:11:16;6.30;99.90
52889;DHT22;41413;52.770;6.892;2022-11-18T10:16:42;6.20;99.90
52889;DHT22;41413;52.770;6.892;2022-11-18T10:19:28;6.20;99.90
52889;DHT22;41413;52.770;6.892;2022-11-18T10:21:59;6.20;99.90
52889;DHT22;41413;52.770;6.892;2022-11-18T10:24:43;6.10;99.90
52889;DHT22;41413;52.770;6.892;2022-11-18T10:27:13;6.20;99.90
52889;DHT22;41413;52.770;6.892;2022-11-18T10:29:41;6.20;99.90
52889;DHT22;41413;52.770;6.892;2022-11-18T10:32:16;6.20;99.90
52889;DHT22;41413;52.770;6.892;2022-11-18T10:34:52;6.20;99.90
52889;DHT22;41413;52.770;6.892;2022-11-18T10:40:23;6.20;99.90
52889;DHT22;41413;52.770;6.892;2022-11-18T10:42:50;6.10;99.90
52889;DHT22;41413;52.770;6.892;2022-11-18T10:48:12;6.10;99.90
52889;DHT22;41413;52.770;6.892;2022-11-18T10:50:47;6.10;99.90
52889;DHT22;41413;52.770;6.892;2022-11-18T10:53:35;6.10;99.90
52889;DHT22;41413;52.770;6.892;2022-11-18T10:56:07;6.00;99.90
52889;DHT22;41413;52.770;6.892;2022-11-18T10:58:36;6.00;99.90
52889;DHT22;41413;52.770;6.892;2022-11-18T11:06:30;6.00;99.90
52889;DHT22;41413;52.770;6.892;2022-11-18T11:09:07;6.00;99.90
52889;DHT22;41413;52.770;6.892;2022-11-18T11:11:57;6.00;99.90
52889;DHT22;41413;52.770;6.892;2022-11-18T11:14:29;6.00;99.90
52889;DHT22;41413;52.770;6.892;2022-11-18T11:17:11;6.00;99.90
52889;DHT22;41413;52.770;6.892;2022-11-18T11:22:19;6.00;99.90
52889;DHT22;41413;52.770;6.892;2022-11-18T11:24:46;5.90;99.90
52889;DHT22;41413;52.770;6.892;2022-11-18T11:27:23;5.90;99.90
52889;DHT22;41413;52.770;6.892;2022-11-18T11:30:21;5.90;99.90
52889;DHT22;41413;52.770;6.892;2022-11-18T11:33:10;5.80;99.90
52889;DHT22;41413;52.770;6.892;2022-11-18T11:40:55;5.70;99.90
52889;DHT22;41413;52.770;6.892;2022-11-18T11:46:34;5.60;99.90
52889;DHT22;41413;52.770;6.892;2022-11-18T11:49:24;5.50;99.90
52889;DHT22;41413;52.770;6.892;2022-11-18T11:52:04;5.50;99.90
52889;DHT22;41413;52.770;6.892;2022-11-18T11:54:51;5.50;99.90
52889;DHT22;41413;52.770;6.892;2022-11-18T11:57:32;5.50;99.90
52889;DHT22;41413;52.770;6.892;2022-11-18T12:00:08;5.40;99.90
52889;DHT22;41413;52.770;6.892;2022-11-18T12:02:57;5.40;99.90
52889;DHT22;41413;52.770;6.892;2022-11-18T12:05:32;5.40;99.90
52889;DHT22;41413;52.770;6.892;2022-11-18T12:13:30;5.30;99.90
52889;DHT22;41413;52.770;6.892;2022-11-18T12:19:10;5.40;99.90
52889;DHT22;41413;52.770;6.892;2022-11-18T12:26:45;5.30;99.90
52889;DHT22;41413;52.770;6.892;2022-11-18T12:31:56;5.30;99.90
52889;DHT22;41413;52.770;6.892;2022-11-18T12:34:41;5.30;99.90
52889;DHT22;41413;52.770;6.892;2022-11-18T12:39:59;5.20;99.90
52889;DHT22;41413;52.770;6.892;2022-11-18T12:42:36;5.30;99.90
52889;DHT22;41413;52.770;6.892;2022-11-18T12:48:26;5.30;99.90
52889;DHT22;41413;52.770;6.892;2022-11-18T12:50:58;5.20;99.90
52889;DHT22;41413;52.770;6.892;2022-11-18T12:53:35;5.20;99.90
52889;DHT22;41413;52.770;6.892;2022-11-18T12:56:21;5.30;99.90
52889;DHT22;41413;52.770;6.892;2022-11-18T12:58:51;5.20;99.90
52889;DHT22;41413;52.770;6.892;2022-11-18T13:01:26;5.20;99.90
52889;DHT22;41413;52.770;6.892;2022-11-18T13:06:33;5.20;99.90
52889;DHT22;41413;52.770;6.892;2022-11-18T13:09:06;5.10;99.90
52889;DHT22;41413;52.770;6.892;2022-11-18T13:11:49;5.10;99.90
52889;DHT22;41413;52.770;6.892;2022-11-18T13:14:38;5.10;99.90
52889;DHT22;41413;52.770;6.892;2022-11-18T13:17:33;5.00;99.90
52889;DHT22;41413;52.770;6.892;2022-11-18T13:23:02;5.00;99.90
52889;DHT22;41413;52.770;6.892;2022-11-18T13:25:48;5.00;99.90
52889;DHT22;41413;52.770;6.892;2022-11-18T13:30:59;5.00;99.90
52889;DHT22;41413;52.770;6.892;2022-11-18T13:33:28;5.00;99.90
52889;DHT22;41413;52.770;6.892;2022-11-18T13:35:59;4.90;99.90
52889;DHT22;41413;52.770;6.892;2022-11-18T13:38:26;4.90;99.90
52889;DHT22;41413;52.770;6.892;2022-11-18T13:40:54;4.90;99.90
52889;DHT22;41413;52.770;6.892;2022-11-18T13:43:31;4.80;99.90
52889;DHT22;41413;52.770;6.892;2022-11-18T13:45:59;4.80;99.90
52889;DHT22;41413;52.770;6.892;2022-11-18T13:48:27;4.80;99.90
52889;DHT22;41413;52.770;6.892;2022-11-18T13:50:57;4.80;99.90
52889;DHT22;41413;52.770;6.892;2022-11-18T13:53:34;4.80;99.90
52889;DHT22;41413;52.770;6.892;2022-11-18T13:56:22;4.70;99.90
52889;DHT22;41413;52.770;6.892;2022-11-18T14:01:37;4.70;99.90
52889;DHT22;41413;52.770;6.892;2022-11-18T14:04:06;4.60;99.90
52889;DHT22;41413;52.770;6.892;2022-11-18T14:06:41;4.60;99.90
52889;DHT22;41413;52.770;6.892;2022-11-18T14:09:24;4.60;99.90
52889;DHT22;41413;52.770;6.892;2022-11-18T14:12:02;4.50;99.90
52889;DHT22;41413;52.770;6.892;2022-11-18T14:14:40;4.50;99.90
52889;DHT22;41413;52.770;6.892;2022-11-18T14:17:24;4.50;99.90
52889;DHT22;41413;52.770;6.892;2022-11-18T14:19:55;4.50;99.90
52889;DHT22;41413;52.770;6.892;2022-11-18T14:22:24;4.50;99.90
52889;DHT22;41413;52.770;6.892;2022-11-18T14:25:25;4.50;99.90
52889;DHT22;41413;52.770;6.892;2022-11-18T14:27:55;4.50;99.90
52889;DHT22;41413;52.770;6.892;2022-11-18T14:30:27;4.50;99.90
52889;DHT22;41413;52.770;6.892;2022-11-18T14:33:11;4.40;99.90
52889;DHT22;41413;52.770;6.892;2022-11-18T14:35:39;4.40;99.90
52889;DHT22;41413;52.770;6.892;2022-11-18T14:41:21;4.30;99.90
52889;DHT22;41413;52.770;6.892;2022-11-18T14:44:11;4.30;99.90
52889;DHT22;41413;52.770;6.892;2022-11-18T14:46:40;4.20;99.90
52889;DHT22;41413;52.770;6.892;2022-11-18T14:49:19;4.30;99.90
52889;DHT22;41413;52.770;6.892;2022-11-18T14:51:49;4.30;99.90
52889;DHT22;41413;52.770;6.892;2022-11-18T14:54:20;3.60;99.90
52889;DHT22;41413;52.770;6.892;2022-11-18T14:57:03;4.20;99.90
52889;DHT22;41413;52.770;6.892;2022-11-18T14:59:30;4.20;99.90
52889;DHT22;41413;52.770;6.892;2022-11-18T15:01:57;4.20;99.90
52889;DHT22;41413;52.770;6.892;2022-11-18T15:04:24;4.20;99.90
52889;DHT22;41413;52.770;6.892;2022-11-18T15:06:54;4.20;99.90
52889;DHT22;41413;52.770;6.892;2022-11-18T15:09:21;4.10;99.90
52889;DHT22;41413;52.770;6.892;2022-11-18T15:11:48;4.20;99.90
52889;DHT22;41413;52.770;6.892;2022-11-18T15:14:15;4.20;99.90
52889;DHT22;41413;52.770;6.892;2022-11-18T15:16:42;4.00;99.90
52889;DHT22;41413;52.770;6.892;2022-11-18T15:19:13;4.10;99.90
52889;DHT22;41413;52.770;6.892;2022-11-18T15:21:41;4.00;99.90
52889;DHT22;41413;52.770;6.892;2022-11-18T15:24:07;3.90;99.90
52889;DHT22;41413;52.770;6.892;2022-11-18T15:26:43;3.90;99.90
52889;DHT22;41413;52.770;6.892;2022-11-18T15:29:16;3.90;99.90
52889;DHT22;41413;52.770;6.892;2022-11-18T15:31:44;3.80;99.90
52889;DHT22;41413;52.770;6.892;2022-11-18T15:34:10;3.70;99.90
52889;DHT22;41413;52.770;6.892;2022-11-18T15:36:37;3.70;99.90
52889;DHT22;41413;52.770;6.892;2022-11-18T15:39:04;3.70;99.90
52889;DHT22;41413;52.770;6.892;2022-11-18T15:41:31;3.70;99.90
52889;DHT22;41413;52.770;6.892;2022-11-18T15:43:58;3.70;99.90
52889;DHT22;41413;52.770;6.892;2022-11-18T15:46:26;3.60;99.90
52889;DHT22;41413;52.770;6.892;2022-11-18T15:48:54;3.70;99.90
52889;DHT22;41413;52.770;6.892;2022-11-18T15:51:22;3.60;99.90
52889;DHT22;41413;52.770;6.892;2022-11-18T15:53:49;3.60;99.90
52889;DHT22;41413;52.770;6.892;2022-11-18T15:58:58;3.60;99.90
52889;DHT22;41413;52.770;6.892;2022-11-18T16:01:28;3.60;99.90
52889;DHT22;41413;52.770;6.892;2022-11-18T16:03:55;3.60;99.90
52889;DHT22;41413;52.770;6.892;2022-11-18T16:06:23;3.60;99.90
52889;DHT22;41413;52.770;6.892;2022-11-18T16:08:50;3.60;99.90
52889;DHT22;41413;52.770;6.892;2022-11-18T16:11:24;3.50;99.90
52889;DHT22;41413;52.770;6.892;2022-11-18T16:14:11;3.50;99.90
52889;DHT22;41413;52.770;6.892;2022-11-18T16:16:40;3.50;99.90
52889;DHT22;41413;52.770;6.892;2022-11-18T16:19:10;3.50;99.90
52889;DHT22;41413;52.770;6.892;2022-11-18T16:21:39;3.50;99.90
52889;DHT22;41413;52.770;6.892;2022-11-18T16:24:09;3.60;99.90
52889;DHT22;41413;52.770;6.892;2022-11-18T16:26:36;3.50;99.90
52889;DHT22;41413;52.770;6.892;2022-11-18T16:29:04;3.50;99.90
52889;DHT22;41413;52.770;6.892;2022-11-18T16:31:32;3.50;99.90
52889;DHT22;41413;52.770;6.892;2022-11-18T16:36:36;3.40;99.90
52889;DHT22;41413;52.770;6.892;2022-11-18T16:39:09;3.40;99.90
52889;DHT22;41413;52.770;6.892;2022-11-18T16:41:36;3.30;99.90
52889;DHT22;41413;52.770;6.892;2022-11-18T16:44:05;3.20;99.90
52889;DHT22;41413;52.770;6.892;2022-11-18T16:46:34;3.30;99.90
52889;DHT22;41413;52.770;6.892;2022-11-18T16:49:02;3.30;99.90
52889;DHT22;41413;52.770;6.892;2022-11-18T16:51:30;3.30;99.90
52889;DHT22;41413;52.770;6.892;2022-11-18T16:54:02;3.30;99.90
52889;DHT22;41413;52.770;6.892;2022-11-18T16:56:31;3.30;99.90
52889;DHT22;41413;52.770;6.892;2022-11-18T16:59:03;3.30;99.90
52889;DHT22;41413;52.770;6.892;2022-11-18T17:01:30;3.30;99.90
52889;DHT22;41413;52.770;6.892;2022-11-18T17:03:58;3.20;99.90
52889;DHT22;41413;52.770;6.892;2022-11-18T17:06:27;3.20;99.90
52889;DHT22;41413;52.770;6.892;2022-11-18T17:08:54;3.20;99.90
52889;DHT22;41413;52.770;6.892;2022-11-18T17:11:21;3.20;99.90
52889;DHT22;41413;52.770;6.892;2022-11-18T17:13:49;3.10;99.90
52889;DHT22;41413;52.770;6.892;2022-11-18T17:16:23;3.10;99.90
52889;DHT22;41413;52.770;6.892;2022-11-18T17:18:55;3.00;99.90
52889;DHT22;41413;52.770;6.892;2022-11-18T17:21:23;3.10;99.90
52889;DHT22;41413;52.770;6.892;2022-11-18T17:23:50;3.00;99.90
52889;DHT22;41413;52.770;6.892;2022-11-18T17:26:19;3.00;99.90
52889;DHT22;41413;52.770;6.892;2022-11-18T17:28:46;3.00;99.90
52889;DHT22;41413;52.770;6.892;2022-11-18T17:31:17;3.00;99.90
52889;DHT22;41413;52.770;6.892;2022-11-18T17:33:45;3.00;99.90
52889;DHT22;41413;52.770;6.892;2022-11-18T17:36:14;2.90;99.90
52889;DHT22;41413;52.770;6.892;2022-11-18T17:38:43;2.90;99.90
52889;DHT22;41413;52.770;6.892;2022-11-18T17:41:13;2.80;99.90
52889;DHT22;41413;52.770;6.892;2022-11-18T17:44:01;2.80;99.90
52889;DHT22;41413;52.770;6.892;2022-11-18T17:46:29;2.80;99.90
52889;DHT22;41413;52.770;6.892;2022-11-18T17:49:05;2.70;99.90
52889;DHT22;41413;52.770;6.892;2022-11-18T17:51:33;2.70;99.90
52889;DHT22;41413;52.770;6.892;2022-11-18T17:53:59;2.60;99.90
52889;DHT22;41413;52.770;6.892;2022-11-18T17:56:26;2.60;99.90
52889;DHT22;41413;52.770;6.892;2022-11-18T17:58:53;2.60;99.90
52889;DHT22;41413;52.770;6.892;2022-11-18T18:01:20;2.60;99.90